Time;durP1;ratioP1;P1;durP2;ratioP2;P2;SDS_P1;SDS_P2;PMS_P1;PMS_P2;Temp;Humidity;BMP_temperature;BMP_pressure;BME280_temperature;BME280_humidity;BME280_pressure;Samples;Min_cycle;Max_cycle;Signal;HPM_P1;HPM_P2
2023/10/27 00:00:37;;;;;;;49.22;36.28;;;9.90;99.90;;;;;;5071252;28;20501;-86
2023/10/27 00:03:04;;;;;;;46.53;36.42;;;10.00;99.90;;;;;;5070856;28;20057;-86
2023/10/27 00:05:31;;;;;;;45.28;34.80;;;10.30;99.90;;;;;;5072013;28;20101;-87
2023/10/27 00:07:57;;;;;;;46.42;35.63;;;10.40;99.90;;;;;;5071053;28;20044;-86
2023/10/27 00:10:23;;;;;;;50.90;35.10;;;10.00;99.90;;;;;;5071522;28;20029;-86
2023/10/27 00:12:49;;;;;;;47.03;35.92;;;10.50;99.90;;;;;;5070713;28;20510;-86
2023/10/27 00:15:14;;;;;;;45.15;36.67;;;10.20;99.90;;;;;;5070785;28;20048;-86
2023/10/27 00:17:40;;;;;;;50.08;36.00;;;10.00;99.90;;;;;;5071224;28;20500;-86
2023/10/27 00:20:06;;;;;;;45.35;34.75;;;10.00;99.90;;;;;;5070313;28;20043;-86
2023/10/27 00:22:33;;;;;;;45.88;35.53;;;10.00;99.90;;;;;;5053958;28;20094;-86
2023/10/27 00:25:02;;;;;;;43.33;34.58;;;10.10;99.90;;;;;;5053995;28;20488;-87
2023/10/27 00:27:28;;;;;;;49.25;36.03;;;10.00;99.90;;;;;;5053949;28;20032;-86
2023/10/27 00:29:54;;;;;;;43.78;36.35;;;10.10;99.90;;;;;;5054407;28;20040;-86
2023/10/27 00:32:19;;;;;;;46.20;36.55;;;10.00;99.90;;;;;;5054056;28;20071;-87
2023/10/27 00:34:45;;;;;;;42.75;34.70;;;10.00;99.90;;;;;;5069738;28;20053;-86
2023/10/27 00:37:11;;;;;;;46.58;33.53;;;10.10;99.90;;;;;;5053626;28;20093;-86
2023/10/27 00:39:39;;;;;;;40.33;31.67;;;10.00;99.90;;;;;;5070618;28;20059;-86
2023/10/27 00:42:05;;;;;;;37.35;31.35;;;10.10;99.90;;;;;;5053929;28;20540;-86
2023/10/27 00:44:32;;;;;;;37.83;30.58;;;9.90;99.90;;;;;;5070205;28;20040;-86
2023/10/27 00:46:57;;;;;;;37.95;33.72;;;9.90;99.90;;;;;;5053534;28;20131;-86
2023/10/27 00:49:24;;;;;;;37.97;32.20;;;9.90;99.90;;;;;;5070372;28;20124;-86
2023/10/27 00:51:50;;;;;;;42.20;33.45;;;9.90;99.90;;;;;;5070591;28;20064;-87
2023/10/27 00:54:18;;;;;;;39.80;34.17;;;10.90;99.90;;;;;;5070498;28;20051;-87
2023/10/27 00:56:45;;;;;;;38.10;30.40;;;9.80;99.90;;;;;;5053333;28;20102;-87
2023/10/27 00:59:12;;;;;;;40.42;32.72;;;10.00;99.90;;;;;;5053765;28;20037;-86
2023/10/27 01:01:38;;;;;;;40.55;32.85;;;10.80;99.90;;;;;;5070304;28;20056;-86
2023/10/27 01:04:03;;;;;;;40.80;34.22;;;9.80;99.90;;;;;;5069210;28;20045;-86
2023/10/27 01:06:29;;;;;;;37.78;32.65;;;9.80;99.90;;;;;;5069830;28;20041;-86
2023/10/27 01:08:55;;;;;;;38.72;33.17;;;9.80;99.90;;;;;;5053052;28;20491;-86
2023/10/27 01:11:22;;;;;;;42.47;34.40;;;9.80;99.90;;;;;;5069967;28;20233;-86
2023/10/27 01:13:52;;;;;;;39.30;33.63;;;9.80;99.90;;;;;;5069565;28;20076;-86
2023/10/27 01:16:18;;;;;;;42.45;34.67;;;9.40;99.90;;;;;;5069318;28;20047;-86
2023/10/27 01:18:44;;;;;;;39.80;33.58;;;10.20;99.90;;;;;;5052294;28;20041;-86
2023/10/27 01:21:10;;;;;;;40.25;34.85;;;9.80;99.90;;;;;;5069692;28;20041;-86
2023/10/27 01:23:35;;;;;;;42.35;33.30;;;9.70;99.90;;;;;;5052117;28;20097;-86
2023/10/27 01:26:03;;;;;;;44.42;35.88;;;9.80;99.90;;;;;;5052634;28;20067;-86
2023/10/27 01:28:29;;;;;;;44.38;36.55;;;9.80;99.90;;;;;;5069434;28;20120;-86
2023/10/27 01:30:56;;;;;;;47.17;36.70;;;9.80;99.90;;;;;;5069103;28;20051;-87
2023/10/27 01:33:22;;;;;;;49.95;39.72;;;10.20;99.90;;;;;;5069565;28;20033;-86
2023/10/27 01:35:48;;;;;;;47.38;38.03;;;9.80;99.90;;;;;;5069096;28;20583;-86
2023/10/27 01:38:13;;;;;;;47.90;39.35;;;9.80;99.90;;;;;;5069880;28;20067;-86
2023/10/27 01:40:39;;;;;;;46.35;35.70;;;10.40;99.90;;;;;;5052413;28;20497;-87
2023/10/27 01:43:05;;;;;;;48.40;37.38;;;10.20;99.90;;;;;;5052293;28;20127;-86
2023/10/27 01:45:30;;;;;;;51.28;35.90;;;9.80;99.90;;;;;;5069319;28;20052;-86
2023/10/27 01:47:56;;;;;;;45.17;37.60;;;10.40;99.90;;;;;;5068726;28;20040;-86
2023/10/27 01:50:22;;;;;;;51.88;40.83;;;10.70;99.90;;;;;;5052555;28;20403;-86
2023/10/27 01:52:47;;;;;;;53.65;37.05;;;10.00;99.90;;;;;;5052596;28;20139;-86
2023/10/27 01:55:13;;;;;;;55.58;37.90;;;9.80;99.90;;;;;;5069247;28;20098;-86
2023/10/27 01:57:39;;;;;;;52.42;36.83;;;9.80;99.90;;;;;;5069340;28;20583;-86
2023/10/27 02:00:07;;;;;;;49.55;37.17;;;10.00;99.90;;;;;;5052732;28;20463;-86
2023/10/27 02:02:34;;;;;;;54.90;41.45;;;9.80;99.90;;;;;;5068045;28;20040;-86
2023/10/27 02:05:05;;;;;;;52.72;45.38;;;9.80;99.90;;;;;;5052716;28;20071;-87
2023/10/27 02:07:31;;;;;;;50.22;37.13;;;10.20;99.90;;;;;;5052126;28;20087;-86
2023/10/27 02:10:00;;;;;;;49.78;38.20;;;9.70;99.90;;;;;;5051861;28;20041;-86
2023/10/27 02:12:29;;;;;;;51.05;37.83;;;10.50;99.90;;;;;;5052352;28;20048;-86
2023/10/27 02:14:54;;;;;;;55.55;38.08;;;9.70;99.90;;;;;;5068407;28;20086;-85
2023/10/27 02:17:20;;;;;;;54.85;39.85;;;9.80;99.90;;;;;;5051747;28;20040;-86
2023/10/27 02:19:47;;;;;;;50.88;41.65;;;9.80;99.90;;;;;;5052071;28;20374;-86
2023/10/27 02:22:13;;;;;;;56.08;40.20;;;9.70;99.90;;;;;;5051976;28;20489;-86
2023/10/27 02:24:39;;;;;;;56.33;38.60;;;10.70;99.90;;;;;;5051995;28;20075;-86
2023/10/27 02:27:06;;;;;;;55.42;40.58;;;10.20;99.90;;;;;;5052005;28;20048;-85
2023/10/27 02:29:32;;;;;;;55.80;36.75;;;10.30;99.90;;;;;;5068447;28;20052;-86
2023/10/27 02:31:57;;;;;;;55.95;40.63;;;9.60;99.90;;;;;;5067542;28;20097;-87
2023/10/27 02:34:24;;;;;;;52.67;40.75;;;9.60;99.90;;;;;;5051378;28;20048;-86
2023/10/27 02:36:50;;;;;;;55.83;38.08;;;9.00;99.90;;;;;;5050700;28;20053;-86
2023/10/27 02:39:16;;;;;;;52.53;38.45;;;10.10;99.90;;;;;;5068403;28;20410;-86
2023/10/27 02:41:41;;;;;;;51.45;37.80;;;9.80;99.90;;;;;;5068407;28;20438;-86
2023/10/27 02:44:08;;;;;;;51.67;36.50;;;9.60;99.90;;;;;;5068470;28;20033;-85
2023/10/27 02:46:35;;;;;;;57.00;38.90;;;9.70;99.90;;;;;;5067457;28;20041;-85
2023/10/27 02:49:03;;;;;;;55.65;37.90;;;9.70;99.90;;;;;;5051716;28;20048;-86
2023/10/27 02:51:28;;;;;;;56.33;39.28;;;9.70;99.90;;;;;;5068241;28;20127;-85
2023/10/27 02:53:54;;;;;;;59.95;39.33;;;9.90;99.90;;;;;;5051982;28;20131;-85
2023/10/27 02:56:20;;;;;;;48.05;37.97;;;9.60;99.90;;;;;;5068203;28;20103;-85
2023/10/27 02:58:45;;;;;;;56.92;40.90;;;9.80;99.90;;;;;;5051366;28;20294;-85
2023/10/27 03:01:15;;;;;;;50.05;37.50;;;9.70;99.90;;;;;;5051013;28;20126;-85
2023/10/27 03:03:42;;;;;;;50.03;36.30;;;10.10;99.90;;;;;;5068423;28;20283;-85
2023/10/27 03:06:08;;;;;;;47.58;39.55;;;10.50;99.90;;;;;;5051402;28;20094;-85
2023/10/27 03:08:34;;;;;;;42.20;34.80;;;10.60;99.90;;;;;;5051383;28;20040;-86
2023/10/27 03:11:00;;;;;;;43.13;35.47;;;10.30;99.90;;;;;;5067998;28;20041;-86
2023/10/27 03:13:33;;;;;;;47.38;36.28;;;9.60;99.90;;;;;;5068085;28;20048;-85
2023/10/27 03:16:00;;;;;;;49.38;35.50;;;9.80;99.90;;;;;;5050987;28;20076;-86
2023/10/27 03:18:26;;;;;;;47.40;34.92;;;9.70;99.90;;;;;;5067810;28;20051;-86
2023/10/27 03:20:56;;;;;;;46.08;40.42;;;9.80;99.90;;;;;;5068058;28;20044;-85
2023/10/27 03:23:26;;;;;;;44.70;37.63;;;9.80;99.90;;;;;;5067431;28;20079;-86
2023/10/27 03:25:52;;;;;;;46.88;37.22;;;9.60;99.90;;;;;;5067982;28;20090;-86
2023/10/27 03:28:17;;;;;;;40.20;35.75;;;9.60;99.90;;;;;;5067433;28;20041;-85
2023/10/27 03:30:44;;;;;;;45.63;37.08;;;10.70;99.90;;;;;;5051211;28;20055;-85
2023/10/27 03:33:10;;;;;;;44.10;36.28;;;9.80;99.90;;;;;;5067578;28;20121;-86
2023/10/27 03:35:40;;;;;;;39.38;33.78;;;10.00;99.90;;;;;;5067308;28;20557;-85
2023/10/27 03:38:06;;;;;;;46.35;37.83;;;9.50;99.90;;;;;;5051144;28;20036;-86
2023/10/27 03:40:31;;;;;;;44.42;36.95;;;10.20;99.90;;;;;;5067908;28;20044;-85
2023/10/27 03:42:57;;;;;;;41.80;35.25;;;9.50;99.90;;;;;;5068411;28;20045;-86
2023/10/27 03:45:23;;;;;;;41.95;33.28;;;10.70;99.90;;;;;;5051223;28;20029;-86
2023/10/27 03:47:48;;;;;;;44.03;33.10;;;9.50;99.90;;;;;;5068769;28;20045;-86
2023/10/27 03:50:14;;;;;;;40.58;32.58;;;9.50;99.90;;;;;;5054295;28;20036;-86
2023/10/27 03:52:40;;;;;;;40.90;32.67;;;9.50;99.90;;;;;;5071107;28;20040;-85
2023/10/27 03:55:07;;;;;;;38.63;33.58;;;9.40;99.90;;;;;;5070782;28;20036;-85
2023/10/27 03:57:36;;;;;;;40.55;34.08;;;9.50;99.90;;;;;;5071190;28;20104;-86
2023/10/27 04:00:07;;;;;;;41.33;36.47;;;9.50;99.90;;;;;;5071715;28;20552;-85
2023/10/27 04:02:33;;;;;;;45.13;34.13;;;9.40;99.90;;;;;;5054039;28;20036;-85
2023/10/27 04:04:59;;;;;;;38.88;34.67;;;9.40;99.90;;;;;;5071113;28;20115;-86
2023/10/27 04:07:25;;;;;;;41.30;36.05;;;10.10;99.90;;;;;;5054316;28;20127;-86
2023/10/27 04:09:50;;;;;;;40.15;35.30;;;9.50;99.90;;;;;;5071213;28;20098;-86
2023/10/27 04:12:16;;;;;;;39.10;34.30;;;9.40;99.90;;;;;;5070456;28;20040;-86
2023/10/27 04:14:42;;;;;;;43.53;37.10;;;9.30;99.90;;;;;;5054146;28;20043;-85
2023/10/27 04:17:07;;;;;;;40.33;35.95;;;9.70;99.90;;;;;;5071010;28;20040;-85
2023/10/27 04:19:34;;;;;;;43.60;36.13;;;9.60;99.90;;;;;;5070764;28;20036;-86
2023/10/27 04:21:59;;;;;;;46.75;40.30;;;9.30;99.90;;;;;;5070577;28;20051;-85
2023/10/27 04:24:25;;;;;;;44.47;36.33;;;9.20;99.90;;;;;;5070868;28;20036;-86
2023/10/27 04:26:51;;;;;;;43.38;36.50;;;9.30;99.90;;;;;;5070312;28;20033;-85
2023/10/27 04:29:17;;;;;;;45.42;36.28;;;9.20;99.90;;;;;;5070440;28;20466;-86
2023/10/27 04:31:44;;;;;;;42.22;34.22;;;10.20;99.90;;;;;;5070426;28;20040;-86
2023/10/27 04:34:10;;;;;;;48.80;38.28;;;8.50;99.90;;;;;;5070056;28;20135;-85
2023/10/27 04:36:36;;;;;;;46.75;40.78;;;9.20;99.90;;;;;;5053583;28;20455;-85
2023/10/27 04:39:03;;;;;;;49.70;38.55;;;9.20;99.90;;;;;;5053611;28;20040;-85
2023/10/27 04:41:30;;;;;;;48.65;36.80;;;9.90;99.90;;;;;;5070038;28;20032;-86
2023/10/27 04:43:56;;;;;;;42.38;35.00;;;9.30;99.90;;;;;;5070314;28;20047;-85
2023/10/27 04:46:22;;;;;;;44.97;35.92;;;10.20;99.90;;;;;;5070002;28;20083;-86
2023/10/27 04:48:48;;;;;;;47.40;35.25;;;10.20;99.90;;;;;;5053560;28;20470;-85
2023/10/27 04:51:14;;;;;;;41.10;34.25;;;9.30;99.90;;;;;;5070253;28;20517;-85
2023/10/27 04:53:40;;;;;;;41.65;35.92;;;9.30;99.90;;;;;;5070208;28;20072;-85
2023/10/27 04:56:06;;;;;;;43.97;35.70;;;10.00;99.90;;;;;;5069635;28;20099;-85
2023/10/27 04:58:32;;;;;;;43.53;35.50;;;10.20;99.90;;;;;;5069215;28;20076;-86
2023/10/27 05:00:58;;;;;;;46.35;36.47;;;9.70;99.90;;;;;;5052900;28;20071;-85
2023/10/27 05:03:24;;;;;;;40.22;33.42;;;9.40;99.90;;;;;;5070144;28;20110;-86
2023/10/27 05:05:49;;;;;;;44.40;35.42;;;9.50;99.90;;;;;;5069656;28;20037;-86
2023/10/27 05:08:15;;;;;;;49.78;36.17;;;10.30;99.90;;;;;;5053226;28;20078;-86
2023/10/27 05:10:42;;;;;;;41.15;34.38;;;9.40;99.90;;;;;;5069298;28;20047;-86
2023/10/27 05:13:08;;;;;;;41.50;33.28;;;9.70;99.90;;;;;;5069701;28;20041;-85
2023/10/27 05:15:34;;;;;;;42.30;34.38;;;9.80;99.90;;;;;;5052836;28;20524;-85
2023/10/27 05:18:04;;;;;;;41.47;35.20;;;9.40;99.90;;;;;;5069330;28;20045;-86
2023/10/27 05:20:40;;;;;;;46.55;39.38;;;9.40;99.90;;;;;;5069693;28;20123;-85
2023/10/27 05:23:05;;;;;;;48.63;39.70;;;9.50;99.90;;;;;;5053143;28;20036;-85
2023/10/27 05:25:31;;;;;;;39.35;32.83;;;9.50;99.90;;;;;;5068807;28;20505;-85
2023/10/27 05:27:57;;;;;;;43.42;37.13;;;9.50;99.90;;;;;;5069369;28;20041;-85
2023/10/27 05:30:22;;;;;;;46.05;36.08;;;9.50;99.90;;;;;;5052431;28;20076;-85
2023/10/27 05:32:48;;;;;;;43.67;35.28;;;9.80;99.90;;;;;;5069205;28;20117;-86
2023/10/27 05:35:13;;;;;;;45.17;40.40;;;10.20;99.90;;;;;;5052492;28;20557;-85
2023/10/27 05:37:39;;;;;;;40.58;35.25;;;9.50;99.90;;;;;;5069033;28;20052;-85
2023/10/27 05:40:05;;;;;;;45.28;36.28;;;9.50;99.90;;;;;;5052030;28;20037;-86
2023/10/27 05:42:31;;;;;;;42.20;37.35;;;9.50;99.90;;;;;;5069004;28;20040;-85
2023/10/27 05:44:56;;;;;;;40.53;35.65;;;9.50;99.90;;;;;;5069176;28;20047;-86
2023/10/27 05:47:22;;;;;;;42.53;34.47;;;10.50;99.90;;;;;;5069029;28;20100;-86
2023/10/27 05:49:50;;;;;;;42.72;37.75;;;9.50;99.90;;;;;;5052664;28;20123;-86
2023/10/27 05:52:16;;;;;;;43.75;37.90;;;9.50;99.90;;;;;;5053012;28;20091;-86
2023/10/27 05:54:43;;;;;;;43.15;36.28;;;9.50;99.90;;;;;;5051921;28;20142;-86
2023/10/27 05:57:09;;;;;;;37.83;31.17;;;9.50;99.90;;;;;;5052650;28;20044;-85
2023/10/27 05:59:36;;;;;;;42.83;35.80;;;10.50;99.90;;;;;;5069013;28;20158;-86
2023/10/27 06:02:02;;;;;;;41.72;35.53;;;10.50;99.90;;;;;;5069337;28;20040;-86
2023/10/27 06:04:27;;;;;;;43.25;37.88;;;9.50;99.90;;;;;;5069169;28;20450;-85
2023/10/27 06:06:53;;;;;;;40.17;34.97;;;9.50;99.90;;;;;;5052300;28;20398;-86
2023/10/27 06:09:19;;;;;;;42.00;37.50;;;9.90;99.90;;;;;;5070471;28;20029;-85
2023/10/27 06:11:45;;;;;;;42.33;35.92;;;10.50;99.90;;;;;;5068949;28;20592;-86
2023/10/27 06:14:10;;;;;;;38.92;34.65;;;9.90;99.90;;;;;;5052586;28;20040;-85
2023/10/27 06:16:37;;;;;;;46.70;35.80;;;9.50;99.90;;;;;;5069189;28;20055;-86
2023/10/27 06:19:03;;;;;;;43.40;35.03;;;10.20;99.90;;;;;;5051914;28;20426;-85
2023/10/27 06:21:29;;;;;;;47.88;36.83;;;9.70;99.90;;;;;;5052564;28;20047;-86
2023/10/27 06:23:55;;;;;;;42.88;34.40;;;9.50;99.90;;;;;;5051940;28;20048;-85
2023/10/27 06:26:20;;;;;;;40.95;34.20;;;10.30;99.90;;;;;;5052325;28;20043;-85
2023/10/27 06:28:46;;;;;;;40.65;35.50;;;9.40;99.90;;;;;;5053234;28;20036;-86
2023/10/27 06:31:12;;;;;;;40.88;31.90;;;9.80;99.90;;;;;;5052405;28;20474;-85
2023/10/27 06:33:38;;;;;;;45.88;35.10;;;9.20;99.90;;;;;;5051494;28;20790;-85
2023/10/27 06:36:04;;;;;;;39.22;33.35;;;10.40;99.90;;;;;;5069114;28;20040;-85
2023/10/27 06:38:30;;;;;;;43.95;36.22;;;9.50;99.90;;;;;;5068270;28;20056;-86
2023/10/27 06:40:56;;;;;;;41.95;36.30;;;9.60;99.90;;;;;;5051850;28;20037;-86
2023/10/27 06:43:21;;;;;;;39.92;33.13;;;9.60;99.90;;;;;;5052488;28;20037;-85
2023/10/27 06:45:47;;;;;;;39.55;32.75;;;10.60;99.90;;;;;;5068678;28;20036;-85
2023/10/27 06:48:13;;;;;;;39.38;33.80;;;10.30;99.90;;;;;;5068939;28;20036;-85
2023/10/27 06:50:38;;;;;;;39.95;35.17;;;9.60;99.90;;;;;;5068934;28;20396;-85
2023/10/27 06:53:04;;;;;;;41.35;36.65;;;9.70;99.90;;;;;;5067995;28;20079;-85
2023/10/27 06:55:30;;;;;;;40.58;33.95;;;10.50;99.90;;;;;;5052111;28;20036;-85
2023/10/27 06:57:56;;;;;;;39.33;31.77;;;9.60;99.90;;;;;;5068480;28;20520;-86
2023/10/27 07:00:21;;;;;;;38.30;33.13;;;9.70;99.90;;;;;;5051881;28;20398;-85
2023/10/27 07:02:48;;;;;;;38.13;31.75;;;10.60;99.90;;;;;;5051471;28;20093;-85
2023/10/27 07:05:16;;;;;;;38.67;34.55;;;10.00;99.90;;;;;;5068127;28;20040;-85
2023/10/27 07:07:43;;;;;;;36.17;31.90;;;9.70;99.90;;;;;;5067786;28;20036;-85
2023/10/27 07:10:09;;;;;;;36.08;31.08;;;9.70;99.90;;;;;;5068146;28;20028;-85
2023/10/27 07:12:36;;;;;;;35.33;31.38;;;9.70;99.90;;;;;;5068148;28;20131;-85
2023/10/27 07:15:02;;;;;;;35.13;30.35;;;9.80;99.90;;;;;;5068493;28;20422;-85
2023/10/27 07:17:28;;;;;;;34.95;31.15;;;10.00;99.90;;;;;;5051943;28;20096;-85
2023/10/27 07:19:54;;;;;;;32.72;28.55;;;9.40;99.90;;;;;;5051418;28;20263;-85
2023/10/27 07:22:19;;;;;;;36.03;31.50;;;9.40;99.90;;;;;;5051621;28;20083;-85
2023/10/27 07:24:46;;;;;;;32.72;29.30;;;10.40;99.90;;;;;;5055098;28;20052;-85
2023/10/27 07:27:12;;;;;;;32.72;29.08;;;9.90;99.90;;;;;;5071967;28;20048;-85
2023/10/27 07:29:38;;;;;;;33.85;30.33;;;10.60;99.90;;;;;;5055167;28;20051;-85
2023/10/27 07:32:03;;;;;;;33.85;30.27;;;10.10;99.90;;;;;;5072132;28;20049;-85
2023/10/27 07:34:29;;;;;;;36.03;29.73;;;9.80;99.90;;;;;;5071669;28;20044;-85
2023/10/27 07:36:55;;;;;;;32.83;29.38;;;10.30;99.90;;;;;;5071357;28;20040;-85
2023/10/27 07:39:22;;;;;;;32.75;26.98;;;10.20;99.90;;;;;;5071860;28;20128;-85
2023/10/27 07:41:52;;;;;;;35.45;31.67;;;10.50;99.90;;;;;;5055403;28;20036;-86
2023/10/27 07:44:18;;;;;;;34.80;31.48;;;9.80;99.90;;;;;;5072154;28;20397;-85
2023/10/27 07:46:44;;;;;;;36.08;32.40;;;10.80;99.90;;;;;;5072003;28;20040;-85
2023/10/27 07:49:10;;;;;;;33.65;30.25;;;9.90;99.90;;;;;;5071183;28;20079;-85
2023/10/27 07:51:36;;;;;;;33.38;29.67;;;9.90;99.90;;;;;;5055047;28;20036;-85
2023/10/27 07:54:04;;;;;;;36.38;30.38;;;10.30;99.90;;;;;;5054920;28;20068;-85
2023/10/27 07:56:33;;;;;;;33.22;29.13;;;9.90;99.90;;;;;;5071564;28;20661;-85
2023/10/27 07:58:59;;;;;;;33.65;29.35;;;9.90;99.90;;;;;;5071708;28;20445;-85
2023/10/27 08:01:25;;;;;;;33.17;29.75;;;10.60;99.90;;;;;;5055019;28;20135;-85
2023/10/27 08:03:51;;;;;;;31.85;28.10;;;10.40;99.90;;;;;;5054393;28;20131;-85
2023/10/27 08:06:17;;;;;;;31.35;28.02;;;10.20;99.90;;;;;;5054923;28;20044;-84
2023/10/27 08:08:42;;;;;;;33.53;30.10;;;10.10;99.90;;;;;;5054811;28;20032;-85
2023/10/27 08:11:17;;;;;;;33.70;30.13;;;9.10;99.90;;;;;;5054837;28;20036;-85
2023/10/27 08:13:43;;;;;;;29.50;25.63;;;10.00;99.90;;;;;;5071518;28;20041;-85
2023/10/27 08:16:13;;;;;;;32.30;28.23;;;10.70;99.90;;;;;;5071255;28;20044;-85
2023/10/27 08:18:39;;;;;;;35.75;31.77;;;10.00;99.90;;;;;;5054336;28;20181;-85
2023/10/27 08:21:04;;;;;;;31.67;28.27;;;10.00;99.90;;;;;;5071167;28;20060;-86
2023/10/27 08:23:30;;;;;;;30.60;25.38;;;10.80;99.90;;;;;;5070917;28;20036;-85
2023/10/27 08:25:56;;;;;;;32.70;27.95;;;10.20;99.90;;;;;;5054232;28;20093;-85
2023/10/27 08:28:21;;;;;;;34.88;30.73;;;10.50;99.90;;;;;;5054578;28;20040;-85
2023/10/27 08:30:48;;;;;;;32.78;29.20;;;10.30;99.90;;;;;;5071153;28;20072;-85
2023/10/27 08:33:17;;;;;;;35.17;30.33;;;11.00;99.90;;;;;;5054099;28;20071;-86
2023/10/27 08:35:43;;;;;;;34.47;30.80;;;10.20;99.90;;;;;;5054530;28;20044;-85
2023/10/27 08:38:09;;;;;;;38.72;32.17;;;10.50;99.90;;;;;;5071537;28;20040;-85
2023/10/27 08:40:38;;;;;;;31.40;27.55;;;11.00;99.90;;;;;;5071290;28;20197;-85
2023/10/27 08:43:04;;;;;;;34.20;30.73;;;11.00;99.90;;;;;;5071793;28;20130;-86
2023/10/27 08:45:32;;;;;;;32.42;28.27;;;11.00;99.90;;;;;;5071370;28;20032;-85
2023/10/27 08:48:00;;;;;;;31.25;27.95;;;10.30;99.90;;;;;;5070791;28;20055;-85
2023/10/27 08:50:27;;;;;;;30.33;27.05;;;10.30;99.90;;;;;;5054685;28;20568;-86
2023/10/27 08:52:52;;;;;;;29.60;25.40;;;11.20;99.90;;;;;;5054678;28;20036;-85
2023/10/27 08:55:21;;;;;;;31.65;26.42;;;10.30;99.90;;;;;;5054373;28;20471;-85
2023/10/27 08:57:47;;;;;;;28.13;25.10;;;10.80;99.90;;;;;;5071070;28;20037;-86
2023/10/27 09:00:13;;;;;;;29.73;26.08;;;10.40;99.90;;;;;;5070923;28;20532;-85
2023/10/27 09:02:39;;;;;;;30.50;27.40;;;10.40;99.90;;;;;;5053966;28;20040;-85
2023/10/27 09:05:07;;;;;;;31.85;26.83;;;10.40;99.90;;;;;;5053864;28;20048;-85
2023/10/27 09:07:36;;;;;;;30.65;27.52;;;10.50;99.90;;;;;;5054003;28;20040;-86
2023/10/27 09:10:06;;;;;;;30.55;26.95;;;10.50;99.90;;;;;;5054275;28;20122;-85
2023/10/27 09:12:36;;;;;;;28.73;25.63;;;10.60;99.90;;;;;;5054258;28;20441;-85
2023/10/27 09:15:12;;;;;;;29.52;26.52;;;10.60;99.90;;;;;;5070628;28;20087;-85
2023/10/27 09:17:53;;;;;;;29.75;26.80;;;10.60;99.90;;;;;;5070282;28;20036;-85
2023/10/27 09:20:23;;;;;;;26.75;23.85;;;11.20;99.90;;;;;;5053291;28;20097;-85
2023/10/27 09:23:09;;;;;;;28.45;25.52;;;10.60;99.90;;;;;;5053394;28;20044;-85
2023/10/27 09:25:35;;;;;;;30.67;27.85;;;10.70;99.90;;;;;;5069936;28;20056;-86
2023/10/27 09:28:03;;;;;;;33.47;30.38;;;10.70;99.90;;;;;;5053584;28;20423;-85
2023/10/27 09:30:30;;;;;;;32.47;29.55;;;10.80;99.90;;;;;;5070111;28;20040;-85
2023/10/27 09:33:28;;;;;;;34.95;31.63;;;11.40;99.90;;;;;;5069478;28;20059;-85
2023/10/27 09:35:54;;;;;;;27.65;25.08;;;11.40;99.90;;;;;;5053201;28;20071;-85
2023/10/27 09:38:22;;;;;;;29.05;26.23;;;10.90;99.90;;;;;;5053045;28;20041;-85
2023/10/27 09:40:48;;;;;;;23.42;20.60;;;11.70;99.90;;;;;;5053274;28;20040;-85
2023/10/27 09:43:21;;;;;;;23.23;21.05;;;11.00;99.90;;;;;;5053723;28;20041;-86
2023/10/27 09:45:54;;;;;;;;;;;10.90;99.90;;;;;;5053079;28;20032;-85
2023/10/27 09:48:28;;;;;;;28.40;25.85;;;10.90;99.90;;;;;;5069828;28;19967;-86
2023/10/27 09:51:04;;;;;;;;;;;11.00;99.90;;;;;;5053899;28;20433;-86
2023/10/27 09:53:31;;;;;;;29.10;26.55;;;10.90;99.90;;;;;;5053036;28;19922;-86
2023/10/27 09:56:00;;;;;;;23.40;21.13;;;10.90;99.90;;;;;;5069601;28;20045;-86
2023/10/27 09:58:29;;;;;;;24.77;22.25;;;11.80;99.90;;;;;;5052804;28;20647;-85
2023/10/27 10:00:56;;;;;;;25.02;22.63;;;11.50;99.90;;;;;;5052550;28;20051;-85
2023/10/27 10:03:26;;;;;;;23.90;21.63;;;11.30;99.90;;;;;;5069544;28;20047;-86
2023/10/27 10:06:20;;;;;;;30.38;27.85;;;11.40;99.90;;;;;;5052909;28;20203;-85
2023/10/27 10:09:09;;;;;;;26.23;23.83;;;10.70;99.90;;;;;;5052562;28;20079;-85
2023/10/27 10:11:47;;;;;;;25.50;23.10;;;11.30;99.90;;;;;;5052607;28;20032;-86
2023/10/27 10:14:42;;;;;;;30.48;27.92;;;11.00;99.90;;;;;;5052045;28;20045;-86
2023/10/27 10:17:11;;;;;;;26.92;24.52;;;11.00;99.90;;;;;;5053082;28;20044;-86
2023/10/27 10:19:50;;;;;;;28.20;25.70;;;11.30;99.90;;;;;;5052634;28;20040;-86
2023/10/27 10:22:48;;;;;;;22.50;20.45;;;11.10;99.90;;;;;;5069267;28;20098;-86
2023/10/27 10:25:23;;;;;;;27.25;24.80;;;11.20;99.90;;;;;;5036369;28;20063;-86
2023/10/27 10:28:06;;;;;;;29.50;26.90;;;11.10;99.90;;;;;;5052678;28;20086;-86
2023/10/27 10:30:33;;;;;;;29.13;26.65;;;11.10;99.90;;;;;;5052172;28;20045;-85
2023/10/27 10:33:28;;;;;;;26.02;23.52;;;11.20;99.90;;;;;;5069890;28;20040;-85
2023/10/27 10:36:23;;;;;;;25.55;23.15;;;11.20;99.90;;;;;;5052609;28;20044;-86
2023/10/27 10:38:56;;;;;;;27.77;25.30;;;11.20;99.90;;;;;;5052520;28;20352;-85
2023/10/27 10:41:40;;;;;;;25.90;23.60;;;11.30;99.90;;;;;;5052967;28;20080;-86
2023/10/27 10:44:14;;;;;;;23.85;21.55;;;11.30;99.90;;;;;;5052581;28;20468;-85
2023/10/27 10:46:40;;;;;;;30.00;27.35;;;11.30;99.90;;;;;;5052398;28;20044;-85
2023/10/27 10:49:06;;;;;;;34.22;31.33;;;11.30;99.90;;;;;;5068836;28;20564;-85
2023/10/27 10:51:37;;;;;;;28.38;25.70;;;11.60;99.90;;;;;;5052123;28;20037;-86
2023/10/27 10:54:12;;;;;;;24.27;21.88;;;11.30;99.90;;;;;;5052168;28;20033;-85
2023/10/27 10:56:38;;;;;;;31.70;28.65;;;11.30;99.90;;;;;;5069020;28;20037;-85
2023/10/27 10:59:04;;;;;;;29.45;26.88;;;11.50;99.90;;;;;;5056167;28;20123;-86
2023/10/27 11:01:30;;;;;;;34.50;31.40;;;11.30;99.90;;;;;;5056734;28;20490;-86
2023/10/27 11:03:57;;;;;;;27.35;24.85;;;11.60;99.90;;;;;;5073257;28;20041;-86
2023/10/27 11:06:26;;;;;;;27.13;24.35;;;11.30;99.90;;;;;;5055975;28;20131;-86
2023/10/27 11:08:52;;;;;;;26.02;23.23;;;11.40;99.90;;;;;;5072842;28;20323;-86
2023/10/27 11:11:19;;;;;;;26.45;23.33;;;11.40;99.90;;;;;;5055745;28;20468;-86
2023/10/27 11:13:52;;;;;;;26.00;23.20;;;11.50;99.90;;;;;;5055620;28;20047;-86
2023/10/27 11:16:22;;;;;;;;;;;11.30;99.90;;;;;;5056224;28;20127;-85
2023/10/27 11:18:51;;;;;;;27.13;24.35;;;11.30;99.90;;;;;;5055867;28;19916;-85
2023/10/27 11:21:17;;;;;;;32.35;29.17;;;11.30;99.90;;;;;;5055948;28;20051;-86
2023/10/27 11:23:43;;;;;;;30.40;27.25;;;11.70;99.90;;;;;;5072597;28;20070;-86
2023/10/27 11:26:10;;;;;;;27.73;24.85;;;11.30;99.90;;;;;;5056016;28;20044;-85
2023/10/27 11:28:40;;;;;;;30.27;27.13;;;11.30;99.90;;;;;;5055565;28;20128;-85
2023/10/27 11:31:08;;;;;;;31.38;28.02;;;11.30;99.90;;;;;;5056025;28;20045;-86
2023/10/27 11:33:57;;;;;;;36.33;32.75;;;11.70;99.90;;;;;;5072507;28;20044;-86
2023/10/27 11:36:35;;;;;;;31.23;28.15;;;11.20;99.90;;;;;;5055126;28;20482;-87
2023/10/27 11:39:33;;;;;;;33.67;30.38;;;11.20;99.90;;;;;;5055377;28;20044;-86
2023/10/27 11:42:00;;;;;;;29.77;26.75;;;11.20;99.90;;;;;;5063624;28;20080;-86
2023/10/27 11:44:37;;;;;;;32.45;29.25;;;11.30;99.90;;;;;;5055793;28;20102;-86
2023/10/27 11:47:04;;;;;;;32.42;29.15;;;11.30;99.90;;;;;;5055405;28;20036;-86
2023/10/27 11:49:32;;;;;;;37.65;34.05;;;11.30;99.90;;;;;;5055231;28;20044;-86
2023/10/27 11:51:58;;;;;;;33.03;29.73;;;11.20;99.90;;;;;;5055124;28;20118;-86
2023/10/27 11:54:25;;;;;;;34.10;30.55;;;11.30;99.90;;;;;;5054738;28;20086;-86
2023/10/27 11:56:51;;;;;;;32.22;28.67;;;11.80;99.90;;;;;;5054287;28;20478;-86
2023/10/27 11:59:19;;;;;;;33.65;30.05;;;11.70;99.90;;;;;;5071482;28;20143;-86
2023/10/27 12:01:45;;;;;;;38.15;34.20;;;12.00;99.90;;;;;;5071420;28;20051;-86
2023/10/27 12:04:11;;;;;;;31.95;27.63;;;11.70;99.90;;;;;;5071135;28;20041;-86
2023/10/27 12:06:39;;;;;;;34.08;30.48;;;11.30;99.90;;;;;;5070926;28;20036;-86
2023/10/27 12:09:05;;;;;;;30.40;27.02;;;11.40;99.90;;;;;;5053555;28;20051;-86
2023/10/27 12:11:31;;;;;;;32.33;27.10;;;11.20;99.90;;;;;;5070290;28;20539;-86
2023/10/27 12:13:57;;;;;;;31.20;25.17;;;11.30;99.90;;;;;;5070659;28;20114;-86
2023/10/27 12:16:22;;;;;;;33.60;27.42;;;11.30;99.90;;;;;;5070375;28;20532;-86
2023/10/27 12:18:49;;;;;;;32.72;28.33;;;11.00;99.90;;;;;;5070374;28;20037;-86
2023/10/27 12:21:14;;;;;;;39.70;30.27;;;11.20;99.90;;;;;;5070161;28;20047;-85
2023/10/27 12:23:40;;;;;;;35.78;26.90;;;11.20;99.90;;;;;;5053314;28;20044;-86
2023/10/27 12:26:07;;;;;;;33.20;27.27;;;11.70;99.90;;;;;;5052641;28;20044;-85
2023/10/27 12:28:34;;;;;;;31.13;25.55;;;11.30;99.90;;;;;;5053616;28;20044;-85
2023/10/27 12:31:00;;;;;;;32.30;27.77;;;11.40;99.90;;;;;;5053377;28;20076;-85
2023/10/27 12:33:26;;;;;;;32.47;26.98;;;11.80;99.90;;;;;;5069970;28;20040;-85
2023/10/27 12:35:51;;;;;;;33.33;25.33;;;11.20;99.90;;;;;;5053144;28;20044;-84